Terminal Aerodrome Forecast
Issued by NWS Fort Wayne, IN

Home | Current Version | Previous Version | Text Only | Print | Product List | Glossary Off
Versions: 1 2 3 4 5 6 7 8 9 10 11 12 13 14 15 16 17 18 19 20 21 22 23

000
FTUS43 KIWX 040500 CCA
TAFFWA
TAF COR
KFWA 040539Z 0406/0506 21010KT P6SM SCT060 BKN100
     FM041600 22012G18KT P6SM BKN050
     FM042000 25014G22KT 6SM -SHRA BKN040
      TEMPO 0421/0501 3SM TSRA BR OVC030CB
     FM050100 24008KT 6SM -SHRA BR SCT030 OVC060=

USA.gov is the U.S. government's official web portal to all federal, state and local government web resources and services.